Time;durP1;ratioP1;P1;durP2;ratioP2;P2;SDS_P1;SDS_P2;PMS_P1;PMS_P2;Temp;Humidity;BMP_temperature;BMP_pressure;BME280_temperature;BME280_humidity;BME280_pressure;Samples;Min_cycle;Max_cycle;Signal;HPM_P1;HPM_P2
2023/06/10 00:02:11;;;;;;;10.40;9.30;;;;;;;;;;5055408;28;20503;-76
2023/06/10 00:04:42;;;;;;;9.57;8.87;;;;;;;;;;5053723;28;20840;-76
2023/06/10 00:07:10;;;;;;;9.53;8.83;;;;;;;;;;5053477;28;20831;-76
2023/06/10 00:09:41;;;;;;;12.27;9.57;;;;;;;;;;5053363;28;20514;-76
2023/06/10 00:12:21;;;;;;;12.30;10.30;;;;;;;;;;5054157;28;20828;-76
2023/06/10 00:14:50;;;;;;;10.97;9.93;;;;;;;;;;5052720;28;20843;-76
2023/06/10 00:17:18;;;;;;;9.57;8.77;;;;;;;;;;5052311;28;20862;-75
2023/06/10 00:19:46;;;;;;;10.50;9.63;;;;;;;;;;5048829;28;20494;-75
2023/06/10 00:22:22;;;;;;;10.03;9.33;;;;;;;;;;5036784;28;20505;-76
2023/06/10 00:24:56;;;;;;;9.80;9.10;;;;;;;;;;5040044;28;20456;-76
2023/06/10 00:27:34;;;;;;;10.03;9.33;;;;;;;;;;5039304;28;21004;-75
2023/06/10 00:30:12;;;;;;;10.57;9.87;;;;;;;;;;5040635;28;20941;-75
2023/06/10 00:32:55;;;;;;;9.63;8.83;;;;;;;;;;5040158;28;20494;-76
2023/06/10 00:35:28;;;;;;;10.10;9.40;;;;;;;;;;5040981;28;20481;-75
2023/06/10 00:37:56;;;;;;;9.47;8.87;;;;;;;;;;5037152;28;20915;-76
2023/06/10 00:40:33;;;;;;;9.43;8.83;;;;;;;;;;5037233;28;20482;-76
2023/06/10 00:43:05;;;;;;;9.83;8.80;;;;;;;;;;5040587;28;20496;-76
2023/06/10 00:45:49;;;;;;;;;;;;;;;;;;;;;
2023/06/10 00:48:17;;;;;;;10.03;9.33;;;;;;;;;;5044620;28;20456;-76
2023/06/10 00:50:46;;;;;;;10.80;9.90;;;;;;;;;;5036873;28;20461;-77
2023/06/10 00:53:14;;;;;;;12.03;11.03;;;;;;;;;;5037089;28;20451;-74
2023/06/10 00:55:51;;;;;;;10.60;9.80;;;;;;;;;;5042125;28;20808;-75
2023/06/10 00:58:25;;;;;;;10.43;9.50;;;;;;;;;;5045918;28;20438;-75
2023/06/10 01:00:53;;;;;;;9.83;9.00;;;;;;;;;;5048740;28;20513;-76
2023/06/10 01:03:21;;;;;;;10.73;9.83;;;;;;;;;;5048420;28;20477;-76
2023/06/10 01:05:55;;;;;;;9.90;9.30;;;;;;;;;;5051710;28;20461;-76
2023/06/10 01:08:28;;;;;;;11.43;10.43;;;;;;;;;;5051486;28;20804;-76
2023/06/10 01:11:01;;;;;;;10.83;10.03;;;;;;;;;;5048557;28;20458;-76
2023/06/10 01:16:16;;;;;;;11.57;10.77;;;;;;;;;;5039761;28;20465;-76
2023/06/10 01:19:01;;;;;;;10.80;9.93;;;;;;;;;;5047353;28;20510;-76
2023/06/10 01:21:34;;;;;;;10.97;10.07;;;;;;;;;;5064874;28;20515;-75
2023/06/10 01:24:02;;;;;;;10.30;9.50;;;;;;;;;;5064703;28;20558;-76
2023/06/10 01:26:32;;;;;;;10.67;9.80;;;;;;;;;;5065736;28;20453;-76
2023/06/10 01:29:06;;;;;;;10.07;9.37;;;;;;;;;;5070180;28;20465;-76
2023/06/10 01:31:45;;;;;;;10.80;9.90;;;;;;;;;;5067944;28;20512;-76
2023/06/10 01:34:29;;;;;;;10.23;9.53;;;;;;;;;;5068605;28;20422;-76
2023/06/10 01:37:13;;;;;;;10.43;9.73;;;;;;;;;;5069117;28;20509;-76
2023/06/10 01:39:45;;;;;;;9.40;8.70;;;;;;;;;;5068788;28;20788;-76
2023/06/10 01:45:06;;;;;;;11.27;10.37;;;;;;;;;;5066417;28;20461;-75
2023/06/10 01:47:43;;;;;;;10.07;9.37;;;;;;;;;;5067371;28;20445;-76
2023/06/10 01:50:32;;;;;;;11.00;10.20;;;;;;;;;;5068261;28;20463;-75
2023/06/10 01:53:22;;;;;;;10.57;9.70;;;;;;;;;;5068345;28;20565;-77
2023/06/10 01:55:51;;;;;;;10.23;9.43;;;;;;;;;;5067027;28;20465;-76
2023/06/10 02:01:20;;;;;;;10.00;9.30;;;;;;;;;;5061972;28;20478;-76
2023/06/10 02:03:52;;;;;;;10.03;9.30;;;;;;;;;;5058023;28;20484;-75
2023/06/10 02:06:24;;;;;;;9.20;8.60;;;;;;;;;;5060272;28;20449;-75
2023/06/10 02:08:54;;;;;;;8.87;8.17;;;;;;;;;;5060391;28;20464;-75
2023/06/10 02:11:23;;;;;;;9.73;9.03;;;;;;;;;;5059268;28;20552;-75
2023/06/10 02:13:51;;;;;;;9.07;8.47;;;;;;;;;;5060058;28;20452;-75
2023/06/10 02:16:21;;;;;;;9.73;9.00;;;;;;;;;;5059216;28;20518;-75
2023/06/10 02:18:50;;;;;;;9.30;8.40;;;;;;;;;;5057997;28;20449;-75
2023/06/10 02:21:23;;;;;;;8.83;8.23;;;;;;;;;;5040220;28;20465;-75
2023/06/10 02:23:57;;;;;;;8.90;8.07;;;;;;;;;;5038080;28;20561;-76
2023/06/10 02:26:30;;;;;;;9.70;8.90;;;;;;;;;;5038000;28;20474;-74
2023/06/10 02:29:05;;;;;;;9.13;8.40;;;;;;;;;;5037576;28;20529;-75
2023/06/10 02:34:47;;;;;;;8.00;7.50;;;;;;;;;;4977829;28;21000;-76
2023/06/10 02:40:51;;;;;;;9.13;8.33;;;17.70;99.90;;;;;;4995461;28;20444;-76
2023/06/10 02:47:00;;;;;;;;;;;;;;;;;;;;;
2023/06/10 02:49:49;;;;;;;7.70;7.20;;;17.50;99.90;;;;;;5013577;28;20498;-76
2023/06/10 02:52:56;;;;;;;8.30;7.70;;;17.50;99.90;;;;;;5036550;28;20455;-75
2023/06/10 02:56:15;;;;;;;;;;;;;;;;;;;;;
2023/06/10 03:05:03;;;;;;;9.63;8.93;;;17.00;99.90;;;;;;5036956;28;20482;-77
2023/06/10 03:17:38;;;;;;;9.00;8.23;;;17.10;99.90;;;;;;4900013;29;20460;-76
2023/06/10 03:20:56;;;;;;;9.50;8.80;;;17.10;99.90;;;;;;4904449;29;20799;-76
2023/06/10 03:24:02;;;;;;;9.23;8.53;;;17.00;99.90;;;;;;4880568;29;20477;-76
2023/06/10 03:26:59;;;;;;;10.90;9.90;;;17.00;99.90;;;;;;4901670;29;20472;-76
2023/06/10 03:30:04;;;;;;;11.17;10.27;;;17.00;99.90;;;;;;5021008;28;20518;-75
2023/06/10 03:36:04;;;;;;;11.40;10.43;;;17.00;99.90;;;;;;5034180;28;20538;-76
2023/06/10 03:38:42;;;;;;;11.10;10.30;;;17.00;99.90;;;;;;5030962;28;21024;-76
2023/06/10 03:44:03;;;;;;;10.23;9.43;;;17.00;99.90;;;;;;5019761;28;20470;-75
2023/06/10 03:46:45;;;;;;;9.93;9.27;;;17.00;99.90;;;;;;5032662;28;20529;-76
2023/06/10 03:49:37;;;;;;;10.57;9.83;;;16.90;99.90;;;;;;5031814;28;20458;-76
2023/06/10 03:52:28;;;;;;;10.20;9.43;;;16.90;99.90;;;;;;5032212;28;20466;-75
2023/06/10 03:58:04;;;;;;;9.60;8.90;;;16.90;99.90;;;;;;5030844;28;20508;-76
2023/06/10 04:04:13;;;;;;;9.30;8.70;;;16.90;99.90;;;;;;5021183;28;21009;-76
2023/06/10 04:10:28;;;;;;;9.90;9.20;;;16.80;99.90;;;;;;5030828;28;20927;-75
2023/06/10 04:13:16;;;;;;;;;;;;;;;;;;;;;
2023/06/10 04:19:28;;;;;;;10.00;9.30;;;16.90;99.90;;;;;;5032162;28;20445;-76
2023/06/10 04:25:34;;;;;;;10.47;9.67;;;16.90;99.90;;;;;;4999936;28;20543;-76
2023/06/10 04:28:26;;;;;;;10.80;10.00;;;17.00;99.90;;;;;;5014631;28;20562;-75
2023/06/10 04:31:24;;;;;;;10.70;9.90;;;17.00;99.90;;;;;;5013707;28;20490;-76
2023/06/10 04:34:01;;;;;;;11.93;10.83;;;17.00;99.90;;;;;;5013995;28;20448;-76
2023/06/10 04:40:18;;;;;;;11.63;10.80;;;17.10;99.90;;;;;;5016099;28;20462;-75
2023/06/10 04:45:57;;;;;;;11.00;10.20;;;17.30;99.90;;;;;;5018883;28;20451;-75
2023/06/10 04:48:39;;;;;;;11.47;10.57;;;17.40;99.90;;;;;;5029197;28;20449;-76
2023/06/10 04:51:13;;;;;;;10.83;10.03;;;17.50;99.90;;;;;;5038181;28;20524;-75
2023/06/10 04:53:57;;;;;;;10.33;9.57;;;17.50;99.90;;;;;;5036611;28;20484;-75
2023/06/10 04:56:29;;;;;;;11.27;10.37;;;17.60;99.90;;;;;;5035676;28;20475;-76
2023/06/10 04:59:00;;;;;;;10.67;9.77;;;17.70;99.90;;;;;;5034270;28;20468;-75
2023/06/10 05:01:32;;;;;;;10.40;9.60;;;17.80;99.90;;;;;;5031488;28;20505;-75
2023/06/10 05:04:06;;;;;;;12.03;10.87;;;17.80;99.90;;;;;;5034017;28;20587;-76
2023/06/10 05:06:36;;;;;;;10.70;9.90;;;17.90;99.90;;;;;;5036182;28;20476;-75
2023/06/10 05:09:03;;;;;;;10.43;9.73;;;18.00;99.90;;;;;;5045918;28;20455;-75
2023/06/10 05:11:34;;;;;;;10.17;9.37;;;18.10;99.90;;;;;;5049093;28;20477;-76
2023/06/10 05:14:08;;;;;;;13.63;12.57;;;18.20;99.90;;;;;;5050395;28;20442;-75
2023/06/10 05:16:40;;;;;;;11.73;10.83;;;18.30;99.90;;;;;;5052102;28;20466;-77
2023/06/10 05:19:09;;;;;;;9.83;8.93;;;18.30;99.90;;;;;;5046660;28;20541;-77
2023/06/10 05:21:45;;;;;;;8.67;8.00;;;18.40;99.90;;;;;;5043312;28;20474;-75
2023/06/10 05:24:19;;;;;;;10.67;9.83;;;18.60;99.90;;;;;;5042340;28;20484;-76
2023/06/10 05:27:08;;;;;;;8.83;8.23;;;18.70;99.90;;;;;;5044095;28;20477;-76
2023/06/10 05:30:08;;;;;;;9.13;8.53;;;18.80;99.90;;;;;;5049466;28;20449;-75
2023/06/10 05:32:36;;;;;;;8.03;7.43;;;18.90;99.90;;;;;;5054764;28;20481;-76
2023/06/10 05:35:07;;;;;;;7.90;7.40;;;19.00;99.90;;;;;;5055243;28;20560;-76
2023/06/10 05:37:44;;;;;;;7.50;6.97;;;19.10;99.90;;;;;;5051418;28;20485;-76
2023/06/10 05:40:20;;;;;;;7.53;7.00;;;19.20;99.90;;;;;;5060472;28;20495;-76
2023/06/10 05:42:49;;;;;;;7.70;7.10;;;19.20;99.90;;;;;;5060680;28;20504;-76
2023/06/10 05:45:18;;;;;;;7.53;6.93;;;19.30;99.90;;;;;;5051644;28;20471;-75
2023/06/10 05:47:46;;;;;;;7.80;7.20;;;19.40;99.90;;;;;;5040825;28;20533;-76
2023/06/10 05:50:14;;;;;;;7.53;6.93;;;19.60;99.90;;;;;;5041432;28;20458;-75
2023/06/10 05:52:42;;;;;;;7.47;6.87;;;19.80;99.90;;;;;;5023207;28;20498;-75
2023/06/10 05:55:11;;;;;;;7.77;7.17;;;19.70;99.90;;;;;;5015536;28;20458;-76
2023/06/10 06:00:30;;;;;;;8.33;7.73;;;19.80;99.90;;;;;;5013199;28;20433;-75
2023/06/10 06:02:58;;;;;;;7.73;7.23;;;19.80;99.90;;;;;;5014553;28;20546;-75
2023/06/10 06:05:27;;;;;;;8.03;7.33;;;19.90;99.90;;;;;;5014912;28;20488;-75
2023/06/10 06:07:55;;;;;;;7.57;7.07;;;20.00;99.90;;;;;;5015631;28;20462;-76
2023/06/10 06:10:23;;;;;;;7.70;7.20;;;20.10;99.90;;;;;;5014324;28;20486;-75
2023/06/10 06:12:55;;;;;;;7.70;7.10;;;20.20;99.90;;;;;;5014598;28;20475;-76
2023/06/10 06:15:34;;;;;;;7.47;6.97;;;20.20;99.90;;;;;;5015429;28;20459;-76
2023/06/10 06:18:02;;;;;;;9.40;8.60;;;20.30;99.90;;;;;;5014939;28;20530;-75
2023/06/10 06:20:31;;;;;;;7.67;7.07;;;20.70;99.90;;;;;;5014220;28;20501;-76
2023/06/10 06:22:59;;;;;;;7.20;6.70;;;20.50;99.90;;;;;;5015023;28;20906;-75
2023/06/10 06:25:30;;;;;;;7.70;7.10;;;20.60;99.90;;;;;;5017258;28;20570;-76
2023/06/10 06:28:02;;;;;;;7.53;6.97;;;20.70;99.90;;;;;;5018848;28;20474;-76
2023/06/10 06:30:31;;;;;;;8.07;7.47;;;20.90;99.90;;;;;;5019788;28;20455;-74
2023/06/10 06:33:03;;;;;;;8.13;7.43;;;20.90;99.90;;;;;;5025613;28;20485;-75
2023/06/10 06:35:41;;;;;;;7.90;7.30;;;20.90;99.90;;;;;;5030272;28;20446;-74
2023/06/10 06:38:09;;;;;;;7.73;7.23;;;21.00;99.90;;;;;;5041159;28;20477;-75
2023/06/10 06:40:47;;;;;;;7.43;6.93;;;21.10;99.90;;;;;;5042831;28;20437;-74
2023/06/10 06:43:16;;;;;;;8.07;7.47;;;21.10;99.90;;;;;;5046129;28;20442;-76
2023/06/10 06:45:48;;;;;;;7.63;7.13;;;21.10;99.90;;;;;;5047126;28;20867;-76
2023/06/10 06:48:17;;;;;;;6.83;6.40;;;21.20;99.90;;;;;;5046728;28;20438;-75
2023/06/10 06:50:45;;;;;;;7.90;7.30;;;21.50;99.90;;;;;;5041242;28;20489;-76
2023/06/10 06:53:13;;;;;;;7.03;6.53;;;21.50;99.90;;;;;;5041690;28;20794;-76
2023/06/10 06:55:40;;;;;;;8.33;7.70;;;21.50;99.90;;;;;;5042123;28;20458;-75
2023/06/10 06:58:08;;;;;;;7.50;7.00;;;21.40;99.90;;;;;;5043889;28;20847;-74
2023/06/10 07:00:36;;;;;;;8.00;7.40;;;21.50;99.90;;;;;;5044855;28;20446;-75
2023/06/10 07:03:04;;;;;;;6.97;6.47;;;21.70;99.90;;;;;;5044405;28;20447;-75
2023/06/10 07:05:33;;;;;;;7.50;7.00;;;21.70;99.90;;;;;;5043943;28;20499;-75
2023/06/10 07:08:01;;;;;;;8.40;7.77;;;21.80;99.90;;;;;;5043076;28;20459;-75
2023/06/10 07:10:29;;;;;;;7.10;6.60;;;22.00;99.90;;;;;;5044859;28;20985;-73
2023/06/10 07:12:58;;;;;;;7.03;6.53;;;22.20;99.90;;;;;;5042186;28;20474;-75
2023/06/10 07:15:26;;;;;;;6.80;6.40;;;22.20;99.90;;;;;;5043633;28;20464;-76
2023/06/10 07:17:55;;;;;;;7.97;7.37;;;22.40;99.90;;;;;;5048053;28;20756;-75
2023/06/10 07:20:23;;;;;;;7.17;6.67;;;22.30;99.90;;;;;;5056251;28;20453;-75
2023/06/10 07:22:58;;;;;;;7.50;7.00;;;22.40;99.90;;;;;;5067776;28;20508;-74
2023/06/10 07:25:26;;;;;;;7.77;7.17;;;22.60;99.90;;;;;;5063731;28;20473;-73
2023/06/10 07:27:54;;;;;;;7.20;6.70;;;22.60;99.90;;;;;;5060785;28;20457;-75
2023/06/10 07:30:22;;;;;;;7.97;7.40;;;22.70;99.90;;;;;;5061661;28;20463;-75
2023/06/10 07:32:51;;;;;;;7.70;7.20;;;22.80;99.90;;;;;;5060400;28;20476;-75
2023/06/10 07:35:23;;;;;;;7.43;6.93;;;22.90;99.90;;;;;;5061683;28;20457;-74
2023/06/10 07:37:54;;;;;;;7.37;6.87;;;22.90;99.90;;;;;;5062863;28;20501;-75
2023/06/10 07:40:23;;;;;;;8.30;7.70;;;23.00;99.90;;;;;;5059893;28;20529;-74
2023/06/10 07:42:55;;;;;;;7.50;7.03;;;23.00;99.90;;;;;;5059917;28;20474;-76
2023/06/10 07:45:25;;;;;;;8.90;8.20;;;23.00;99.90;;;;;;5061026;28;20470;-74
2023/06/10 07:47:53;;;;;;;7.00;6.50;;;23.10;99.90;;;;;;5062159;28;20453;-76
2023/06/10 07:50:26;;;;;;;6.50;6.10;;;23.10;99.90;;;;;;5062506;28;20446;-75
2023/06/10 07:52:58;;;;;;;7.23;6.70;;;22.90;99.90;;;;;;5060004;28;20442;-75
2023/06/10 07:55:33;;;;;;;7.63;7.00;;;22.80;99.90;;;;;;5063232;28;20485;-75
2023/06/10 07:58:28;;;;;;;7.27;6.77;;;23.00;99.90;;;;;;5061573;28;20457;-77
2023/06/10 08:01:03;;;;;;;7.13;6.73;;;23.20;99.90;;;;;;5062392;28;20937;-74
2023/06/10 08:03:34;;;;;;;6.53;6.13;;;23.50;99.90;;;;;;5060910;28;20540;-75
2023/06/10 08:06:02;;;;;;;6.87;6.37;;;23.40;99.90;;;;;;5060514;28;20572;-75
2023/06/10 08:08:41;;;;;;;7.17;6.57;;;23.60;99.90;;;;;;5064102;28;20461;-75
2023/06/10 08:11:12;;;;;;;6.83;6.33;;;23.70;99.90;;;;;;5065337;28;20527;-74
2023/06/10 08:13:41;;;;;;;6.93;6.43;;;23.80;99.90;;;;;;5062131;28;20810;-75
2023/06/10 08:16:13;;;;;;;6.13;5.63;;;23.90;99.90;;;;;;5061300;28;20477;-75
2023/06/10 08:18:42;;;;;;;6.97;6.50;;;24.00;99.90;;;;;;5053677;28;20534;-75
2023/06/10 08:21:12;;;;;;;6.90;6.40;;;24.10;99.90;;;;;;5055645;28;20496;-75
2023/06/10 08:23:43;;;;;;;6.60;6.20;;;24.20;99.90;;;;;;5063802;28;20541;-74
2023/06/10 08:26:23;;;;;;;6.23;5.73;;;24.30;99.90;;;;;;5064973;28;20549;-75
2023/06/10 08:28:54;;;;;;;6.27;5.77;;;24.30;99.90;;;;;;5063511;28;20449;-75
2023/06/10 08:31:25;;;;;;;6.67;6.27;;;24.50;99.90;;;;;;5062243;28;20473;-74
2023/06/10 08:33:54;;;;;;;7.00;6.43;;;24.50;99.90;;;;;;5063640;28;20442;-74
2023/06/10 08:36:25;;;;;;;6.83;6.23;;;24.50;99.90;;;;;;5060909;28;20603;-77
2023/06/10 08:38:56;;;;;;;9.13;8.33;;;24.50;99.90;;;;;;5057523;28;20983;-76
2023/06/10 08:41:29;;;;;;;7.03;6.43;;;24.70;99.90;;;;;;5057639;28;20491;-76
2023/06/10 08:44:06;;;;;;;7.13;6.60;;;24.70;99.90;;;;;;5056426;28;20460;-75
2023/06/10 08:46:35;;;;;;;6.70;6.30;;;24.80;99.90;;;;;;5056397;28;20511;-75
2023/06/10 08:49:09;;;;;;;7.43;6.93;;;24.80;99.90;;;;;;5056237;28;21124;-76
2023/06/10 08:51:39;;;;;;;6.17;5.77;;;25.00;99.90;;;;;;5057337;28;20940;-76
2023/06/10 08:54:34;;;;;;;6.27;5.87;;;25.10;99.90;;;;;;5055167;28;20952;-76
2023/06/10 08:57:06;;;;;;;6.33;5.73;;;25.30;99.90;;;;;;5056106;28;20453;-75
2023/06/10 08:59:41;;;;;;;6.27;5.87;;;25.40;99.90;;;;;;5056754;28;20453;-75
2023/06/10 09:02:14;;;;;;;6.37;5.77;;;25.50;99.90;;;;;;5056298;28;20479;-76
2023/06/10 09:04:49;;;;;;;5.80;5.50;;;25.50;99.90;;;;;;5055460;28;20544;-75
2023/06/10 09:07:19;;;;;;;6.17;5.70;;;25.80;99.90;;;;;;5057180;28;20461;-75
2023/06/10 09:09:48;;;;;;;6.03;5.73;;;25.60;99.90;;;;;;5056878;28;20479;-75
2023/06/10 09:12:29;;;;;;;5.97;5.47;;;25.70;99.90;;;;;;5056224;28;20500;-74
2023/06/10 09:14:59;;;;;;;6.73;6.23;;;26.00;99.90;;;;;;5056466;28;20862;-75
2023/06/10 09:17:36;;;;;;;6.60;6.20;;;26.10;99.90;;;;;;5056150;28;21113;-75
2023/06/10 09:20:07;;;;;;;6.50;6.00;;;26.20;99.90;;;;;;5055396;28;20463;-75
2023/06/10 09:22:42;;;;;;;6.67;6.20;;;26.30;99.90;;;;;;5055858;28;20480;-77
2023/06/10 09:25:21;;;;;;;6.33;5.93;;;26.50;99.90;;;;;;5056518;28;20485;-75
2023/06/10 09:28:04;;;;;;;7.00;6.60;;;26.80;99.90;;;;;;5057008;28;20544;-75
2023/06/10 09:33:44;;;;;;;7.33;6.73;;;27.00;99.90;;;;;;5051060;28;20503;-75
2023/06/10 09:36:14;;;;;;;6.73;6.33;;;27.40;99.90;;;;;;5058071;28;20446;-75
2023/06/10 09:38:48;;;;;;;6.47;6.07;;;27.60;99.90;;;;;;5058922;28;20459;-75
2023/06/10 09:41:37;;;;;;;7.03;6.33;;;27.90;99.90;;;;;;5059076;28;20472;-75
2023/06/10 09:44:16;;;;;;;6.63;6.23;;;27.70;99.90;;;;;;5058847;28;20503;-75
2023/06/10 09:46:51;;;;;;;6.30;5.90;;;28.00;99.90;;;;;;5059476;28;20481;-76
2023/06/10 09:49:22;;;;;;;6.50;6.10;;;28.20;99.90;;;;;;5057923;28;20956;-75
2023/06/10 09:52:03;;;;;;;6.17;5.77;;;28.40;99.90;;;;;;5058538;28;20470;-76
2023/06/10 09:54:46;;;;;;;6.23;5.83;;;28.80;99.90;;;;;;5059048;28;20450;-73
2023/06/10 09:57:26;;;;;;;6.10;5.70;;;29.00;99.90;;;;;;5059601;28;20457;-74
2023/06/10 09:59:58;;;;;;;6.60;6.10;;;29.10;99.90;;;;;;5058896;28;20899;-77
2023/06/10 10:02:29;;;;;;;6.90;6.37;;;29.40;99.90;;;;;;5060952;28;20457;-74
2023/06/10 10:05:11;;;;;;;6.60;6.00;;;29.90;99.90;;;;;;5059919;28;20474;-76
2023/06/10 10:07:47;;;;;;;5.43;5.13;;;29.70;99.90;;;;;;5060204;28;20479;-74
2023/06/10 10:10:19;;;;;;;6.10;5.70;;;29.90;99.90;;;;;;5057861;28;20477;-75
2023/06/10 10:12:50;;;;;;;6.83;6.23;;;30.00;99.90;;;;;;5056629;28;20452;-75
2023/06/10 10:15:21;;;;;;;6.27;5.87;;;30.20;99.90;;;;;;5056100;28;20466;-75
2023/06/10 10:17:55;;;;;;;5.87;5.50;;;30.20;99.90;;;;;;5058682;28;20457;-75
2023/06/10 10:20:31;;;;;;;5.40;5.10;;;30.40;99.90;;;;;;5048577;28;20517;-75
2023/06/10 10:23:13;;;;;;;5.80;5.50;;;30.70;99.90;;;;;;5037594;28;20479;-74
2023/06/10 10:25:44;;;;;;;5.70;5.30;;;30.80;99.70;;;;;;5035597;28;20479;-75
2023/06/10 10:28:18;;;;;;;5.70;5.40;;;30.50;98.70;;;;;;5034458;28;20459;-75
2023/06/10 10:30:50;;;;;;;5.87;5.50;;;30.60;98.50;;;;;;5033070;28;20878;-74
2023/06/10 10:33:22;;;;;;;11.50;10.53;;;30.60;98.30;;;;;;5033674;28;20516;-75
2023/06/10 10:35:51;;;;;;;5.60;5.30;;;31.10;97.50;;;;;;5034715;28;20483;-75
2023/06/10 10:38:20;;;;;;;5.10;4.80;;;31.40;95.80;;;;;;5036228;28;20868;-75
2023/06/10 10:40:50;;;;;;;5.27;4.97;;;31.40;95.20;;;;;;5038403;28;20441;-75
2023/06/10 10:43:24;;;;;;;6.33;5.80;;;31.40;95.40;;;;;;5038901;28;20464;-74
2023/06/10 10:46:14;;;;;;;5.67;5.37;;;31.20;94.60;;;;;;5041015;28;20482;-75
2023/06/10 10:48:49;;;;;;;5.93;5.63;;;31.10;95.30;;;;;;5039498;28;20538;-74
2023/06/10 10:51:27;;;;;;;5.23;4.93;;;31.30;94.80;;;;;;5041701;28;20471;-75
2023/06/10 10:54:17;;;;;;;6.10;5.60;;;31.30;95.00;;;;;;5040205;28;20451;-74
2023/06/10 10:57:17;;;;;;;6.07;5.63;;;30.90;94.90;;;;;;5030895;28;20939;-76
2023/06/10 11:00:01;;;;;;;5.80;5.50;;;30.60;95.10;;;;;;5040150;28;20448;-74
2023/06/10 11:02:43;;;;;;;6.13;5.63;;;30.40;95.50;;;;;;5039294;28;20482;-77
2023/06/10 11:05:14;;;;;;;6.47;5.87;;;30.50;95.50;;;;;;5038692;28;20439;-74
2023/06/10 11:08:16;;;;;;;6.00;5.60;;;30.60;95.20;;;;;;5035937;28;20435;-75
2023/06/10 11:10:54;;;;;;;6.10;5.70;;;30.40;95.40;;;;;;5015410;28;20454;-75
2023/06/10 11:13:30;;;;;;;6.83;6.13;;;30.30;95.40;;;;;;5041769;28;20446;-74
2023/06/10 11:16:08;;;;;;;6.13;5.63;;;30.00;95.00;;;;;;5040201;28;20452;-74
2023/06/10 11:18:41;;;;;;;5.53;5.23;;;30.00;95.00;;;;;;5040631;28;20448;-75
2023/06/10 11:21:13;;;;;;;5.53;5.23;;;30.00;95.20;;;;;;5056500;28;20470;-75
2023/06/10 11:23:49;;;;;;;5.90;5.50;;;30.50;94.70;;;;;;5059915;28;20495;-75
2023/06/10 11:26:38;;;;;;;6.03;5.60;;;30.60;94.40;;;;;;5058407;28;20493;-74
2023/06/10 11:29:20;;;;;;;5.63;5.33;;;30.90;93.70;;;;;;5059824;28;20518;-75
2023/06/10 11:32:08;;;;;;;5.90;5.43;;;31.10;93.00;;;;;;5058383;28;20468;-75
2023/06/10 11:34:36;;;;;;;5.83;5.53;;;31.40;93.30;;;;;;5057321;28;20941;-76
2023/06/10 11:37:05;;;;;;;6.17;5.57;;;30.30;93.40;;;;;;5057017;28;20478;-75
2023/06/10 11:39:38;;;;;;;5.70;5.30;;;30.60;93.40;;;;;;5055703;28;20442;-75
2023/06/10 11:42:16;;;;;;;5.90;5.47;;;30.70;92.70;;;;;;5056853;28;20884;-74
2023/06/10 11:44:53;;;;;;;6.50;6.10;;;30.80;92.60;;;;;;5055698;28;20491;-75
2023/06/10 11:47:26;;;;;;;6.77;6.20;;;30.50;92.50;;;;;;5054219;28;20505;-75
2023/06/10 11:50:07;;;;;;;6.10;5.70;;;31.00;92.70;;;;;;5053993;28;20491;-76
2023/06/10 11:52:39;;;;;;;6.00;5.60;;;31.40;92.00;;;;;;5053688;28;20483;-75
2023/06/10 11:55:08;;;;;;;5.40;5.10;;;31.70;91.90;;;;;;5056419;28;20455;-77
2023/06/10 11:57:35;;;;;;;5.43;5.10;;;31.80;91.50;;;;;;5053735;28;20439;-75
2023/06/10 12:00:10;;;;;;;5.67;5.27;;;31.60;90.90;;;;;;5053936;28;20495;-74
2023/06/10 12:02:38;;;;;;;5.83;5.53;;;31.00;91.50;;;;;;5053416;28;20841;-76
2023/06/10 12:05:21;;;;;;;5.87;5.37;;;30.70;91.40;;;;;;5053366;28;20517;-74
2023/06/10 12:07:50;;;;;;;5.70;5.30;;;31.10;91.10;;;;;;5054013;28;20479;-75
2023/06/10 12:10:19;;;;;;;5.67;5.37;;;31.40;91.00;;;;;;5049890;28;20465;-76
2023/06/10 12:12:50;;;;;;;5.10;4.80;;;31.30;89.70;;;;;;5033365;28;20575;-74
2023/06/10 12:15:39;;;;;;;5.87;5.47;;;30.80;90.70;;;;;;5035088;28;20904;-76
2023/06/10 12:18:25;;;;;;;6.37;5.80;;;30.70;91.20;;;;;;5032956;28;20547;-76
2023/06/10 12:21:08;;;;;;;5.30;4.90;;;30.70;90.80;;;;;;5032329;28;20542;-75
2023/06/10 12:23:37;;;;;;;6.00;5.50;;;31.20;91.30;;;;;;5032814;28;20898;-76
2023/06/10 12:26:05;;;;;;;5.80;5.50;;;31.90;89.40;;;;;;5033220;28;20472;-76
2023/06/10 12:28:38;;;;;;;4.93;4.63;;;32.00;87.30;;;;;;5034441;28;20448;-75
2023/06/10 12:31:16;;;;;;;5.17;4.80;;;31.70;85.00;;;;;;5034557;28;20444;-75
2023/06/10 12:34:02;;;;;;;4.90;4.50;;;31.20;86.80;;;;;;5030782;28;20478;-74
2023/06/10 12:37:00;;;;;;;4.60;4.30;;;31.10;85.50;;;;;;5031035;28;20447;-76
2023/06/10 12:39:47;;;;;;;9.57;5.60;;;31.10;85.90;;;;;;5031591;28;20459;-76
2023/06/10 12:42:25;;;;;;;5.60;5.30;;;31.20;86.30;;;;;;5017923;28;20482;-76
2023/06/10 12:45:09;;;;;;;4.87;4.57;;;31.00;86.40;;;;;;5031613;28;20463;-75
2023/06/10 12:48:04;;;;;;;5.90;5.50;;;30.90;86.50;;;;;;5031729;28;20490;-75
2023/06/10 12:50:47;;;;;;;5.40;5.10;;;31.00;87.70;;;;;;5022918;28;20903;-75
2023/06/10 12:53:23;;;;;;;5.03;4.63;;;31.10;87.40;;;;;;5031566;28;20445;-75
2023/06/10 12:56:12;;;;;;;5.67;5.27;;;31.30;85.70;;;;;;5035169;28;20455;-75
2023/06/10 12:58:42;;;;;;;5.20;4.80;;;31.60;84.20;;;;;;5046774;28;20435;-77
2023/06/10 13:01:29;;;;;;;5.33;4.70;;;31.30;85.60;;;;;;5043736;28;20469;-75
2023/06/10 13:04:17;;;;;;;5.37;4.97;;;31.00;86.00;;;;;;5037886;28;20510;-76
2023/06/10 13:10:23;;;;;;;5.10;4.80;;;30.70;87.00;;;;;;5053529;28;20454;-76
2023/06/10 13:12:50;;;;;;;6.03;5.63;;;30.40;86.90;;;;;;5052780;28;20510;-77
2023/06/10 13:15:18;;;;;;;5.07;4.77;;;30.10;87.40;;;;;;5040569;28;20435;-75
2023/06/10 13:17:49;;;;;;;6.00;5.60;;;29.90;88.30;;;;;;5045019;28;20442;-74
2023/06/10 13:23:25;;;;;;;5.80;5.50;;;30.60;87.30;;;;;;4998592;28;20463;-75
2023/06/10 13:25:59;;;;;;;5.27;4.80;;;31.10;86.10;;;;;;5043106;28;20461;-75
2023/06/10 13:28:31;;;;;;;4.53;4.33;;;31.40;85.40;;;;;;5045774;28;20523;-77
2023/06/10 13:31:00;;;;;;;5.17;4.67;;;31.60;84.50;;;;;;5046278;28;20453;-75
2023/06/10 13:33:29;;;;;;;4.70;4.40;;;31.90;83.00;;;;;;5041567;28;20446;-76
2023/06/10 13:36:32;;;;;;;4.40;4.20;;;32.30;80.60;;;;;;5041397;28;20454;-75
2023/06/10 13:39:03;;;;;;;4.47;4.17;;;32.60;80.00;;;;;;5031150;28;20455;-76
2023/06/10 13:41:38;;;;;;;4.80;4.50;;;32.80;79.40;;;;;;5036798;28;20475;-75
2023/06/10 13:44:10;;;;;;;4.87;4.57;;;32.50;79.50;;;;;;5035826;28;20828;-75
2023/06/10 13:46:44;;;;;;;5.10;4.80;;;31.40;81.20;;;;;;5034815;28;20482;-76
2023/06/10 13:49:18;;;;;;;4.53;4.13;;;31.10;82.50;;;;;;5034387;28;20448;-75
2023/06/10 13:51:51;;;;;;;4.67;4.37;;;31.00;82.60;;;;;;5034816;28;20571;-75
2023/06/10 13:57:10;;;;;;;4.70;4.40;;;31.00;82.70;;;;;;5011745;28;20947;-77
2023/06/10 14:00:02;;;;;;;5.03;4.63;;;31.00;82.40;;;;;;5034618;28;20458;-76
2023/06/10 14:08:01;;;;;;;4.70;4.50;;;31.70;80.50;;;;;;5025129;28;20477;-76
2023/06/10 14:10:33;;;;;;;4.87;4.53;;;32.30;79.40;;;;;;5034175;28;20444;-76
2023/06/10 14:13:03;;;;;;;4.90;4.50;;;32.60;78.10;;;;;;5033853;28;20473;-76
2023/06/10 14:15:37;;;;;;;4.90;4.60;;;32.80;78.70;;;;;;5035012;28;20460;-75
2023/06/10 14:18:07;;;;;;;4.73;4.50;;;32.50;77.50;;;;;;5035810;28;20444;-76
2023/06/10 14:20:36;;;;;;;4.43;4.23;;;32.40;77.30;;;;;;5044579;28;20489;-77
2023/06/10 14:23:15;;;;;;;4.77;4.37;;;33.00;77.60;;;;;;5057650;28;20533;-78
2023/06/10 14:28:52;;;;;;;4.70;4.50;;;33.50;76.20;;;;;;4979796;28;20424;-77
2023/06/10 14:31:37;;;;;;;4.70;4.23;;;33.60;75.20;;;;;;5021353;28;20467;-81
2023/06/10 14:34:33;;;;;;;;;;;;;;;;;;;;;
2023/06/10 14:37:26;;;;;;;4.20;3.90;;;32.50;75.20;;;;;;5056446;28;20462;-80
2023/06/10 14:43:15;;;;;;;5.10;4.80;;;32.30;77.10;;;;;;5049194;28;20466;-82
2023/06/10 14:45:52;;;;;;;5.40;5.00;;;32.30;77.60;;;;;;5043722;28;20456;-82
2023/06/10 14:48:22;;;;;;;5.20;4.90;;;32.40;77.70;;;;;;5043391;28;20475;-83
2023/06/10 14:50:55;;;;;;;5.50;5.20;;;31.90;78.20;;;;;;5041702;28;20548;-83
2023/06/10 14:53:25;;;;;;;5.77;5.40;;;32.40;77.70;;;;;;5041621;28;21067;-82
2023/06/10 14:56:04;;;;;;;5.47;5.07;;;33.00;76.40;;;;;;5041313;28;20453;-81
2023/06/10 14:58:45;;;;;;;5.17;4.87;;;32.80;74.70;;;;;;5042346;28;20451;-81
2023/06/10 15:01:16;;;;;;;5.43;5.03;;;32.70;74.70;;;;;;5042431;28;20499;-81
2023/06/10 15:03:47;;;;;;;5.30;5.00;;;32.70;74.10;;;;;;5048109;28;20452;-81
2023/06/10 15:06:20;;;;;;;5.40;5.10;;;32.50;75.10;;;;;;5055727;28;20551;-81
2023/06/10 15:09:00;;;;;;;6.10;5.80;;;32.80;74.40;;;;;;5066608;28;20501;-81
2023/06/10 15:11:34;;;;;;;6.23;5.83;;;32.80;74.40;;;;;;5066208;28;20471;-82
2023/06/10 15:17:01;;;;;;;5.83;5.53;;;32.00;75.90;;;;;;5055510;28;20455;-81
2023/06/10 15:19:37;;;;;;;5.50;5.20;;;31.70;77.60;;;;;;5060653;28;20450;-81
2023/06/10 15:22:27;;;;;;;5.97;5.57;;;31.30;78.30;;;;;;5041711;28;20504;-82
2023/06/10 15:25:15;;;;;;;6.00;5.50;;;31.20;79.10;;;;;;5043448;28;20443;-81
2023/06/10 15:27:49;;;;;;;5.83;5.43;;;30.90;78.50;;;;;;5040402;28;20477;-79